sensor_id;sensor_type;location;lat;lon;timestamp;P1;durP1;ratioP1;P2;durP2;ratioP2
56457;SDS011;42360;42.918;12.366;2022-09-01T00:01:16;4.63;;;2.50;;
56457;SDS011;42360;42.918;12.366;2022-09-01T00:03:46;2.30;;;2.10;;
56457;SDS011;42360;42.918;12.366;2022-09-01T00:06:13;3.45;;;2.22;;
56457;SDS011;42360;42.918;12.366;2022-09-01T00:08:46;4.00;;;2.40;;
56457;SDS011;42360;42.918;12.366;2022-09-01T00:11:15;3.42;;;2.10;;
56457;SDS011;42360;42.918;12.366;2022-09-01T00:13:41;3.28;;;2.30;;
56457;SDS011;42360;42.918;12.366;2022-09-01T00:16:07;2.85;;;2.38;;
56457;SDS011;42360;42.918;12.366;2022-09-01T00:21:06;3.15;;;2.10;;
56457;SDS011;42360;42.918;12.366;2022-09-01T00:23:33;4.00;;;2.28;;
56457;SDS011;42360;42.918;12.366;2022-09-01T00:25:58;2.35;;;2.22;;
56457;SDS011;42360;42.918;12.366;2022-09-01T00:28:24;3.10;;;2.53;;
56457;SDS011;42360;42.918;12.366;2022-09-01T00:30:50;4.88;;;2.50;;
56457;SDS011;42360;42.918;12.366;2022-09-01T00:33:16;3.13;;;2.40;;
56457;SDS011;42360;42.918;12.366;2022-09-01T00:35:41;2.47;;;2.28;;
56457;SDS011;42360;42.918;12.366;2022-09-01T00:38:07;3.67;;;2.17;;
56457;SDS011;42360;42.918;12.366;2022-09-01T00:40:33;2.97;;;2.30;;
56457;SDS011;42360;42.918;12.366;2022-09-01T00:42:59;4.45;;;2.40;;
56457;SDS011;42360;42.918;12.366;2022-09-01T00:45:25;2.75;;;2.25;;
56457;SDS011;42360;42.918;12.366;2022-09-01T00:47:50;3.28;;;2.40;;
56457;SDS011;42360;42.918;12.366;2022-09-01T00:50:17;2.88;;;2.67;;
56457;SDS011;42360;42.918;12.366;2022-09-01T00:52:50;3.22;;;2.90;;
56457;SDS011;42360;42.918;12.366;2022-09-01T00:55:20;5.80;;;2.60;;
56457;SDS011;42360;42.918;12.366;2022-09-01T00:57:48;4.05;;;2.42;;
56457;SDS011;42360;42.918;12.366;2022-09-01T01:00:33;2.78;;;2.47;;
56457;SDS011;42360;42.918;12.366;2022-09-01T01:03:11;2.85;;;2.50;;
56457;SDS011;42360;42.918;12.366;2022-09-01T01:05:38;4.07;;;2.60;;
56457;SDS011;42360;42.918;12.366;2022-09-01T01:08:06;3.20;;;2.45;;
56457;SDS011;42360;42.918;12.366;2022-09-01T01:10:35;5.22;;;2.65;;
56457;SDS011;42360;42.918;12.366;2022-09-01T01:13:07;3.92;;;2.90;;
56457;SDS011;42360;42.918;12.366;2022-09-01T01:15:34;4.70;;;2.70;;
56457;SDS011;42360;42.918;12.366;2022-09-01T01:18:00;2.95;;;2.50;;
56457;SDS011;42360;42.918;12.366;2022-09-01T01:20:27;6.07;;;3.13;;
56457;SDS011;42360;42.918;12.366;2022-09-01T01:23:29;4.55;;;3.00;;
56457;SDS011;42360;42.918;12.366;2022-09-01T01:26:01;4.93;;;2.80;;
56457;SDS011;42360;42.918;12.366;2022-09-01T01:28:30;7.25;;;2.75;;
56457;SDS011;42360;42.918;12.366;2022-09-01T01:30:58;4.85;;;2.88;;
56457;SDS011;42360;42.918;12.366;2022-09-01T01:33:36;6.88;;;3.05;;
56457;SDS011;42360;42.918;12.366;2022-09-01T01:38:34;4.43;;;2.88;;
56457;SDS011;42360;42.918;12.366;2022-09-01T01:41:01;4.60;;;2.80;;
56457;SDS011;42360;42.918;12.366;2022-09-01T01:43:27;4.43;;;2.97;;
56457;SDS011;42360;42.918;12.366;2022-09-01T01:45:54;3.35;;;3.00;;
56457;SDS011;42360;42.918;12.366;2022-09-01T01:48:26;4.32;;;3.05;;
56457;SDS011;42360;42.918;12.366;2022-09-01T01:50:56;4.18;;;3.13;;
56457;SDS011;42360;42.918;12.366;2022-09-01T01:53:38;7.03;;;3.20;;
56457;SDS011;42360;42.918;12.366;2022-09-01T01:56:04;4.30;;;2.72;;
56457;SDS011;42360;42.918;12.366;2022-09-01T01:58:30;3.38;;;3.08;;
56457;SDS011;42360;42.918;12.366;2022-09-01T02:00:58;5.22;;;2.97;;
56457;SDS011;42360;42.918;12.366;2022-09-01T02:03:26;3.13;;;2.78;;
56457;SDS011;42360;42.918;12.366;2022-09-01T02:05:54;5.07;;;3.33;;
56457;SDS011;42360;42.918;12.366;2022-09-01T02:08:21;3.90;;;3.40;;
56457;SDS011;42360;42.918;12.366;2022-09-01T02:10:52;3.42;;;3.13;;
56457;SDS011;42360;42.918;12.366;2022-09-01T02:13:19;3.65;;;3.35;;
56457;SDS011;42360;42.918;12.366;2022-09-01T02:15:56;5.72;;;3.25;;
56457;SDS011;42360;42.918;12.366;2022-09-01T02:18:25;7.47;;;3.45;;
56457;SDS011;42360;42.918;12.366;2022-09-01T02:20:53;3.83;;;3.30;;
56457;SDS011;42360;42.918;12.366;2022-09-01T02:23:20;4.13;;;3.38;;
56457;SDS011;42360;42.918;12.366;2022-09-01T02:25:50;3.65;;;2.97;;
56457;SDS011;42360;42.918;12.366;2022-09-01T02:28:19;3.85;;;3.35;;
56457;SDS011;42360;42.918;12.366;2022-09-01T02:30:47;3.40;;;3.10;;
56457;SDS011;42360;42.918;12.366;2022-09-01T02:33:16;3.20;;;2.90;;
56457;SDS011;42360;42.918;12.366;2022-09-01T02:35:46;4.00;;;3.60;;
56457;SDS011;42360;42.918;12.366;2022-09-01T02:38:14;5.47;;;3.30;;
56457;SDS011;42360;42.918;12.366;2022-09-01T02:40:42;4.40;;;3.30;;
56457;SDS011;42360;42.918;12.366;2022-09-01T02:43:10;4.00;;;3.67;;
56457;SDS011;42360;42.918;12.366;2022-09-01T02:45:36;4.50;;;3.00;;
56457;SDS011;42360;42.918;12.366;2022-09-01T02:48:02;4.53;;;2.95;;
56457;SDS011;42360;42.918;12.366;2022-09-01T02:50:37;4.85;;;3.55;;
56457;SDS011;42360;42.918;12.366;2022-09-01T02:53:03;3.20;;;2.80;;
56457;SDS011;42360;42.918;12.366;2022-09-01T02:55:34;4.18;;;2.88;;
56457;SDS011;42360;42.918;12.366;2022-09-01T02:58:01;8.25;;;2.97;;
56457;SDS011;42360;42.918;12.366;2022-09-01T03:00:26;3.28;;;2.70;;
56457;SDS011;42360;42.918;12.366;2022-09-01T03:03:01;3.53;;;3.10;;
56457;SDS011;42360;42.918;12.366;2022-09-01T03:05:28;3.35;;;2.70;;
56457;SDS011;42360;42.918;12.366;2022-09-01T03:08:00;3.58;;;2.72;;
56457;SDS011;42360;42.918;12.366;2022-09-01T03:10:31;4.15;;;3.17;;
56457;SDS011;42360;42.918;12.366;2022-09-01T03:13:05;3.30;;;2.72;;
56457;SDS011;42360;42.918;12.366;2022-09-01T03:15:33;4.85;;;2.90;;
56457;SDS011;42360;42.918;12.366;2022-09-01T03:18:01;5.13;;;2.65;;
56457;SDS011;42360;42.918;12.366;2022-09-01T03:20:28;4.45;;;2.95;;
56457;SDS011;42360;42.918;12.366;2022-09-01T03:22:59;5.15;;;3.33;;
56457;SDS011;42360;42.918;12.366;2022-09-01T03:25:25;2.72;;;2.53;;
56457;SDS011;42360;42.918;12.366;2022-09-01T03:27:53;2.90;;;2.50;;
56457;SDS011;42360;42.918;12.366;2022-09-01T03:30:19;3.47;;;2.55;;
56457;SDS011;42360;42.918;12.366;2022-09-01T03:32:45;3.80;;;3.03;;
56457;SDS011;42360;42.918;12.366;2022-09-01T03:35:12;3.80;;;3.50;;
56457;SDS011;42360;42.918;12.366;2022-09-01T03:37:38;4.50;;;3.33;;
56457;SDS011;42360;42.918;12.366;2022-09-01T03:40:05;4.03;;;3.60;;
56457;SDS011;42360;42.918;12.366;2022-09-01T03:42:33;5.53;;;3.47;;
56457;SDS011;42360;42.918;12.366;2022-09-01T03:45:01;5.07;;;3.30;;
56457;SDS011;42360;42.918;12.366;2022-09-01T03:47:37;4.03;;;2.92;;
56457;SDS011;42360;42.918;12.366;2022-09-01T03:50:06;4.00;;;3.13;;
56457;SDS011;42360;42.918;12.366;2022-09-01T03:52:51;3.30;;;3.00;;
56457;SDS011;42360;42.918;12.366;2022-09-01T03:55:20;4.22;;;2.83;;
56457;SDS011;42360;42.918;12.366;2022-09-01T03:57:51;4.32;;;2.75;;
56457;SDS011;42360;42.918;12.366;2022-09-01T04:00:20;3.30;;;2.92;;
56457;SDS011;42360;42.918;12.366;2022-09-01T04:02:51;3.78;;;3.05;;
56457;SDS011;42360;42.918;12.366;2022-09-01T04:05:25;3.90;;;2.72;;
56457;SDS011;42360;42.918;12.366;2022-09-01T04:07:54;3.30;;;3.00;;
56457;SDS011;42360;42.918;12.366;2022-09-01T04:10:20;3.58;;;2.90;;
56457;SDS011;42360;42.918;12.366;2022-09-01T04:12:47;4.18;;;2.70;;
56457;SDS011;42360;42.918;12.366;2022-09-01T04:15:13;3.45;;;3.15;;
56457;SDS011;42360;42.918;12.366;2022-09-01T04:17:41;8.45;;;3.42;;
56457;SDS011;42360;42.918;12.366;2022-09-01T04:20:26;5.35;;;2.75;;
56457;SDS011;42360;42.918;12.366;2022-09-01T04:22:52;4.90;;;2.95;;
56457;SDS011;42360;42.918;12.366;2022-09-01T04:25:19;3.90;;;3.10;;
56457;SDS011;42360;42.918;12.366;2022-09-01T04:27:50;3.55;;;3.20;;
56457;SDS011;42360;42.918;12.366;2022-09-01T04:30:19;5.78;;;3.72;;
56457;SDS011;42360;42.918;12.366;2022-09-01T04:32:49;5.28;;;3.05;;
56457;SDS011;42360;42.918;12.366;2022-09-01T04:35:16;4.43;;;2.50;;
56457;SDS011;42360;42.918;12.366;2022-09-01T04:37:43;3.20;;;2.90;;
56457;SDS011;42360;42.918;12.366;2022-09-01T04:40:11;3.80;;;2.67;;
56457;SDS011;42360;42.918;12.366;2022-09-01T04:42:38;3.58;;;2.95;;
56457;SDS011;42360;42.918;12.366;2022-09-01T04:45:07;3.30;;;2.33;;
56457;SDS011;42360;42.918;12.366;2022-09-01T04:47:35;4.57;;;2.40;;
56457;SDS011;42360;42.918;12.366;2022-09-01T04:50:06;5.80;;;3.63;;
56457;SDS011;42360;42.918;12.366;2022-09-01T04:52:38;4.05;;;3.65;;
56457;SDS011;42360;42.918;12.366;2022-09-01T04:55:06;4.25;;;2.75;;
56457;SDS011;42360;42.918;12.366;2022-09-01T04:57:42;7.88;;;3.65;;
56457;SDS011;42360;42.918;12.366;2022-09-01T05:00:15;3.50;;;3.20;;
56457;SDS011;42360;42.918;12.366;2022-09-01T05:02:55;4.70;;;3.78;;
56457;SDS011;42360;42.918;12.366;2022-09-01T05:05:27;3.88;;;2.95;;
56457;SDS011;42360;42.918;12.366;2022-09-01T05:07:53;3.78;;;3.20;;
56457;SDS011;42360;42.918;12.366;2022-09-01T05:10:19;3.67;;;3.03;;
56457;SDS011;42360;42.918;12.366;2022-09-01T05:12:46;4.65;;;2.63;;
56457;SDS011;42360;42.918;12.366;2022-09-01T05:15:13;3.35;;;3.05;;
56457;SDS011;42360;42.918;12.366;2022-09-01T05:17:41;3.50;;;2.75;;
56457;SDS011;42360;42.918;12.366;2022-09-01T05:20:08;3.88;;;2.83;;
56457;SDS011;42360;42.918;12.366;2022-09-01T05:22:36;5.97;;;2.90;;
56457;SDS011;42360;42.918;12.366;2022-09-01T05:25:05;4.78;;;2.78;;
56457;SDS011;42360;42.918;12.366;2022-09-01T05:27:38;4.82;;;2.70;;
56457;SDS011;42360;42.918;12.366;2022-09-01T05:30:05;3.95;;;2.75;;
56457;SDS011;42360;42.918;12.366;2022-09-01T05:32:33;4.80;;;2.78;;
56457;SDS011;42360;42.918;12.366;2022-09-01T05:35:02;3.13;;;2.30;;
56457;SDS011;42360;42.918;12.366;2022-09-01T05:37:31;4.00;;;2.67;;
56457;SDS011;42360;42.918;12.366;2022-09-01T05:39:57;5.22;;;3.13;;
56457;SDS011;42360;42.918;12.366;2022-09-01T05:42:23;3.20;;;2.63;;
56457;SDS011;42360;42.918;12.366;2022-09-01T05:44:48;2.95;;;2.60;;
56457;SDS011;42360;42.918;12.366;2022-09-01T05:47:14;3.85;;;3.38;;
56457;SDS011;42360;42.918;12.366;2022-09-01T05:49:40;5.80;;;2.72;;
56457;SDS011;42360;42.918;12.366;2022-09-01T05:52:06;2.90;;;2.70;;
56457;SDS011;42360;42.918;12.366;2022-09-01T05:54:33;3.42;;;2.85;;
56457;SDS011;42360;42.918;12.366;2022-09-01T05:56:59;5.43;;;3.78;;
56457;SDS011;42360;42.918;12.366;2022-09-01T05:59:27;4.30;;;3.33;;
56457;SDS011;42360;42.918;12.366;2022-09-01T06:01:55;4.75;;;3.75;;
56457;SDS011;42360;42.918;12.366;2022-09-01T06:04:22;4.88;;;3.33;;
56457;SDS011;42360;42.918;12.366;2022-09-01T06:06:52;4.25;;;3.60;;
56457;SDS011;42360;42.918;12.366;2022-09-01T06:09:21;4.78;;;3.65;;
56457;SDS011;42360;42.918;12.366;2022-09-01T06:11:47;5.07;;;3.72;;
56457;SDS011;42360;42.918;12.366;2022-09-01T06:14:13;8.63;;;4.38;;
56457;SDS011;42360;42.918;12.366;2022-09-01T06:16:40;6.00;;;4.30;;
56457;SDS011;42360;42.918;12.366;2022-09-01T06:19:06;6.45;;;3.97;;
56457;SDS011;42360;42.918;12.366;2022-09-01T06:21:32;4.10;;;3.70;;
56457;SDS011;42360;42.918;12.366;2022-09-01T06:23:58;6.85;;;4.00;;
56457;SDS011;42360;42.918;12.366;2022-09-01T06:26:31;4.47;;;3.83;;
56457;SDS011;42360;42.918;12.366;2022-09-01T06:29:00;5.07;;;4.30;;
56457;SDS011;42360;42.918;12.366;2022-09-01T06:31:30;6.30;;;3.70;;
56457;SDS011;42360;42.918;12.366;2022-09-01T06:34:04;4.13;;;3.70;;
56457;SDS011;42360;42.918;12.366;2022-09-01T06:36:31;6.00;;;3.75;;
56457;SDS011;42360;42.918;12.366;2022-09-01T06:39:00;5.03;;;4.20;;
56457;SDS011;42360;42.918;12.366;2022-09-01T06:41:28;6.03;;;4.63;;
56457;SDS011;42360;42.918;12.366;2022-09-01T06:43:55;4.82;;;4.13;;
56457;SDS011;42360;42.918;12.366;2022-09-01T06:46:21;5.60;;;5.03;;
56457;SDS011;42360;42.918;12.366;2022-09-01T06:48:48;5.07;;;3.97;;
56457;SDS011;42360;42.918;12.366;2022-09-01T06:51:18;5.90;;;4.00;;
56457;SDS011;42360;42.918;12.366;2022-09-01T06:53:46;5.45;;;4.47;;
56457;SDS011;42360;42.918;12.366;2022-09-01T06:56:15;5.35;;;4.72;;
56457;SDS011;42360;42.918;12.366;2022-09-01T06:58:43;7.20;;;4.60;;
56457;SDS011;42360;42.918;12.366;2022-09-01T07:01:13;5.47;;;4.13;;
56457;SDS011;42360;42.918;12.366;2022-09-01T07:03:42;6.03;;;4.38;;
56457;SDS011;42360;42.918;12.366;2022-09-01T07:06:08;4.22;;;3.83;;
56457;SDS011;42360;42.918;12.366;2022-09-01T07:08:35;4.78;;;4.32;;
56457;SDS011;42360;42.918;12.366;2022-09-01T07:11:06;5.73;;;4.40;;
56457;SDS011;42360;42.918;12.366;2022-09-01T07:13:32;6.45;;;3.72;;
56457;SDS011;42360;42.918;12.366;2022-09-01T07:15:59;6.13;;;4.20;;
56457;SDS011;42360;42.918;12.366;2022-09-01T07:18:26;5.30;;;4.88;;
56457;SDS011;42360;42.918;12.366;2022-09-01T07:20:52;4.63;;;4.00;;
56457;SDS011;42360;42.918;12.366;2022-09-01T07:23:19;3.55;;;3.13;;
56457;SDS011;42360;42.918;12.366;2022-09-01T07:25:45;4.30;;;3.90;;
56457;SDS011;42360;42.918;12.366;2022-09-01T07:28:12;4.97;;;3.95;;
56457;SDS011;42360;42.918;12.366;2022-09-01T07:30:41;5.75;;;4.60;;
56457;SDS011;42360;42.918;12.366;2022-09-01T07:33:10;4.05;;;3.65;;
56457;SDS011;42360;42.918;12.366;2022-09-01T07:35:37;3.40;;;3.10;;
56457;SDS011;42360;42.918;12.366;2022-09-01T07:38:04;4.90;;;2.90;;
56457;SDS011;42360;42.918;12.366;2022-09-01T07:40:34;3.78;;;2.97;;
56457;SDS011;42360;42.918;12.366;2022-09-01T07:43:04;4.65;;;3.42;;
56457;SDS011;42360;42.918;12.366;2022-09-01T07:45:33;3.47;;;3.17;;
56457;SDS011;42360;42.918;12.366;2022-09-01T07:48:02;9.45;;;3.97;;
56457;SDS011;42360;42.918;12.366;2022-09-01T07:50:33;6.75;;;3.35;;
56457;SDS011;42360;42.918;12.366;2022-09-01T07:53:01;5.43;;;4.72;;
56457;SDS011;42360;42.918;12.366;2022-09-01T07:55:27;8.63;;;4.80;;
56457;SDS011;42360;42.918;12.366;2022-09-01T07:57:53;4.90;;;4.22;;
56457;SDS011;42360;42.918;12.366;2022-09-01T08:00:19;5.78;;;3.53;;
56457;SDS011;42360;42.918;12.366;2022-09-01T08:02:46;3.40;;;2.72;;
56457;SDS011;42360;42.918;12.366;2022-09-01T08:05:13;4.50;;;2.92;;
56457;SDS011;42360;42.918;12.366;2022-09-01T08:07:42;3.75;;;3.38;;
56457;SDS011;42360;42.918;12.366;2022-09-01T08:10:08;3.95;;;3.00;;
56457;SDS011;42360;42.918;12.366;2022-09-01T08:12:33;3.50;;;2.83;;
56457;SDS011;42360;42.918;12.366;2022-09-01T08:15:03;3.47;;;2.97;;
56457;SDS011;42360;42.918;12.366;2022-09-01T08:17:30;3.88;;;3.00;;
56457;SDS011;42360;42.918;12.366;2022-09-01T08:19:56;4.35;;;3.55;;
56457;SDS011;42360;42.918;12.366;2022-09-01T08:22:22;5.30;;;2.92;;
56457;SDS011;42360;42.918;12.366;2022-09-01T08:24:50;2.92;;;2.63;;
56457;SDS011;42360;42.918;12.366;2022-09-01T08:27:17;3.80;;;2.90;;
56457;SDS011;42360;42.918;12.366;2022-09-01T08:29:42;4.07;;;3.00;;
56457;SDS011;42360;42.918;12.366;2022-09-01T08:32:08;3.10;;;2.80;;
56457;SDS011;42360;42.918;12.366;2022-09-01T08:34:35;3.00;;;2.72;;
56457;SDS011;42360;42.918;12.366;2022-09-01T08:37:01;4.45;;;2.28;;
56457;SDS011;42360;42.918;12.366;2022-09-01T08:39:28;3.47;;;2.70;;
56457;SDS011;42360;42.918;12.366;2022-09-01T08:42:00;3.92;;;2.85;;
56457;SDS011;42360;42.918;12.366;2022-09-01T08:44:43;5.85;;;5.25;;
56457;SDS011;42360;42.918;12.366;2022-09-01T08:47:16;4.53;;;2.67;;
56457;SDS011;42360;42.918;12.366;2022-09-01T08:49:42;5.70;;;2.63;;
56457;SDS011;42360;42.918;12.366;2022-09-01T08:55:04;3.03;;;2.72;;
56457;SDS011;42360;42.918;12.366;2022-09-01T08:57:38;4.10;;;2.50;;
56457;SDS011;42360;42.918;12.366;2022-09-01T09:00:07;4.82;;;2.30;;
56457;SDS011;42360;42.918;12.366;2022-09-01T09:10:49;5.93;;;2.63;;
56457;SDS011;42360;42.918;12.366;2022-09-01T09:16:08;3.85;;;2.65;;
56457;SDS011;42360;42.918;12.366;2022-09-01T09:18:57;3.88;;;2.05;;
56457;SDS011;42360;42.918;12.366;2022-09-01T09:21:28;3.28;;;2.45;;
56457;SDS011;42360;42.918;12.366;2022-09-01T09:24:05;3.22;;;2.10;;
56457;SDS011;42360;42.918;12.366;2022-09-01T09:26:35;3.85;;;2.28;;
56457;SDS011;42360;42.918;12.366;2022-09-01T09:29:01;3.75;;;2.38;;
56457;SDS011;42360;42.918;12.366;2022-09-01T09:31:37;4.00;;;2.92;;
56457;SDS011;42360;42.918;12.366;2022-09-01T09:34:25;5.53;;;2.92;;
56457;SDS011;42360;42.918;12.366;2022-09-01T09:47:50;4.13;;;1.70;;
56457;SDS011;42360;42.918;12.366;2022-09-01T10:01:49;3.90;;;1.83;;
56457;SDS011;42360;42.918;12.366;2022-09-01T10:04:36;3.35;;;1.75;;
56457;SDS011;42360;42.918;12.366;2022-09-01T10:07:15;5.03;;;1.58;;
56457;SDS011;42360;42.918;12.366;2022-09-01T10:09:49;2.95;;;1.50;;
56457;SDS011;42360;42.918;12.366;2022-09-01T10:12:15;3.17;;;1.40;;
56457;SDS011;42360;42.918;12.366;2022-09-01T10:14:41;1.95;;;1.48;;
56457;SDS011;42360;42.918;12.366;2022-09-01T10:17:28;2.63;;;1.20;;
56457;SDS011;42360;42.918;12.366;2022-09-01T10:19:59;3.22;;;1.67;;
56457;SDS011;42360;42.918;12.366;2022-09-01T10:22:40;2.95;;;1.50;;
56457;SDS011;42360;42.918;12.366;2022-09-01T10:25:07;1.45;;;1.35;;
56457;SDS011;42360;42.918;12.366;2022-09-01T10:27:34;3.67;;;1.42;;
56457;SDS011;42360;42.918;12.366;2022-09-01T10:33:18;1.40;;;1.30;;
56457;SDS011;42360;42.918;12.366;2022-09-01T10:35:29;1.52;;;1.27;;
56457;SDS011;42360;42.918;12.366;2022-09-01T10:38:01;3.17;;;1.67;;
56457;SDS011;42360;42.918;12.366;2022-09-01T10:40:35;3.20;;;1.50;;
56457;SDS011;42360;42.918;12.366;2022-09-01T10:43:24;2.15;;;1.55;;
56457;SDS011;42360;42.918;12.366;2022-09-01T10:46:47;3.58;;;1.83;;
56457;SDS011;42360;42.918;12.366;2022-09-01T10:49:18;3.13;;;1.55;;
56457;SDS011;42360;42.918;12.366;2022-09-01T10:51:46;2.15;;;1.60;;
56457;SDS011;42360;42.918;12.366;2022-09-01T10:56:56;2.03;;;1.48;;
56457;SDS011;42360;42.918;12.366;2022-09-01T10:59:25;4.03;;;1.55;;
56457;SDS011;42360;42.918;12.366;2022-09-01T11:04:22;3.30;;;1.55;;
56457;SDS011;42360;42.918;12.366;2022-09-01T11:07:36;4.70;;;1.60;;
56457;SDS011;42360;42.918;12.366;2022-09-01T11:09:46;4.00;;;1.60;;
56457;SDS011;42360;42.918;12.366;2022-09-01T11:23:04;1.52;;;1.42;;
56457;SDS011;42360;42.918;12.366;2022-09-01T11:25:58;2.10;;;1.80;;
56457;SDS011;42360;42.918;12.366;2022-09-01T11:30:59;2.97;;;2.38;;
56457;SDS011;42360;42.918;12.366;2022-09-01T11:36:34;1.75;;;1.50;;
56457;SDS011;42360;42.918;12.366;2022-09-01T11:41:46;3.90;;;1.70;;
56457;SDS011;42360;42.918;12.366;2022-09-01T11:46:48;1.63;;;1.52;;
56457;SDS011;42360;42.918;12.366;2022-09-01T11:49:25;3.45;;;1.75;;
56457;SDS011;42360;42.918;12.366;2022-09-01T11:52:04;1.92;;;1.55;;
56457;SDS011;42360;42.918;12.366;2022-09-01T11:54:40;2.85;;;1.77;;
56457;SDS011;42360;42.918;12.366;2022-09-01T11:57:17;3.67;;;1.73;;
56457;SDS011;42360;42.918;12.366;2022-09-01T11:59:47;1.75;;;1.52;;
56457;SDS011;42360;42.918;12.366;2022-09-01T12:02:17;1.52;;;1.42;;
56457;SDS011;42360;42.918;12.366;2022-09-01T12:04:45;2.17;;;1.77;;
56457;SDS011;42360;42.918;12.366;2022-09-01T12:07:12;2.22;;;1.73;;
56457;SDS011;42360;42.918;12.366;2022-09-01T12:09:58;1.80;;;1.50;;
56457;SDS011;42360;42.918;12.366;2022-09-01T12:12:29;2.83;;;1.63;;
56457;SDS011;42360;42.918;12.366;2022-09-01T12:14:59;2.50;;;1.77;;
56457;SDS011;42360;42.918;12.366;2022-09-01T12:17:27;2.03;;;1.75;;
56457;SDS011;42360;42.918;12.366;2022-09-01T12:19:53;1.60;;;1.50;;
56457;SDS011;42360;42.918;12.366;2022-09-01T12:22:19;1.95;;;1.85;;
56457;SDS011;42360;42.918;12.366;2022-09-01T12:24:50;2.70;;;1.80;;
56457;SDS011;42360;42.918;12.366;2022-09-01T12:27:17;2.03;;;1.70;;
56457;SDS011;42360;42.918;12.366;2022-09-01T15:20:19;11.75;;;6.22;;
56457;SDS011;42360;42.918;12.366;2022-09-01T15:23:04;7.32;;;5.95;;
56457;SDS011;42360;42.918;12.366;2022-09-01T15:25:31;6.13;;;3.55;;
56457;SDS011;42360;42.918;12.366;2022-09-01T15:27:56;9.52;;;6.57;;
56457;SDS011;42360;42.918;12.366;2022-09-01T15:30:22;6.03;;;3.92;;
56457;SDS011;42360;42.918;12.366;2022-09-01T15:32:50;2.72;;;2.30;;
56457;SDS011;42360;42.918;12.366;2022-09-01T15:35:17;4.18;;;2.78;;
56457;SDS011;42360;42.918;12.366;2022-09-01T15:37:46;3.28;;;2.13;;
56457;SDS011;42360;42.918;12.366;2022-09-01T15:40:13;3.30;;;2.00;;
56457;SDS011;42360;42.918;12.366;2022-09-01T15:42:39;4.97;;;2.55;;
56457;SDS011;42360;42.918;12.366;2022-09-01T15:45:06;3.13;;;2.40;;
56457;SDS011;42360;42.918;12.366;2022-09-01T15:47:37;2.80;;;2.42;;
56457;SDS011;42360;42.918;12.366;2022-09-01T15:50:04;4.95;;;2.80;;
56457;SDS011;42360;42.918;12.366;2022-09-01T15:52:31;3.83;;;2.85;;
56457;SDS011;42360;42.918;12.366;2022-09-01T15:54:58;2.90;;;2.60;;
56457;SDS011;42360;42.918;12.366;2022-09-01T15:57:24;5.40;;;3.65;;
56457;SDS011;42360;42.918;12.366;2022-09-01T15:59:49;4.32;;;3.00;;
56457;SDS011;42360;42.918;12.366;2022-09-01T16:02:15;4.55;;;3.60;;
56457;SDS011;42360;42.918;12.366;2022-09-01T16:04:42;3.20;;;2.92;;
56457;SDS011;42360;42.918;12.366;2022-09-01T16:07:08;3.60;;;3.25;;
56457;SDS011;42360;42.918;12.366;2022-09-01T16:09:34;3.15;;;2.85;;
56457;SDS011;42360;42.918;12.366;2022-09-01T16:12:01;4.70;;;2.60;;
56457;SDS011;42360;42.918;12.366;2022-09-01T16:14:27;2.70;;;2.47;;
56457;SDS011;42360;42.918;12.366;2022-09-01T16:19:32;2.50;;;2.30;;
56457;SDS011;42360;42.918;12.366;2022-09-01T16:24:50;3.75;;;2.30;;
56457;SDS011;42360;42.918;12.366;2022-09-01T16:27:32;2.63;;;2.42;;
56457;SDS011;42360;42.918;12.366;2022-09-01T16:30:01;2.70;;;2.20;;
56457;SDS011;42360;42.918;12.366;2022-09-01T16:32:34;3.35;;;2.20;;
56457;SDS011;42360;42.918;12.366;2022-09-01T16:35:00;2.28;;;1.92;;
56457;SDS011;42360;42.918;12.366;2022-09-01T16:48:40;7.72;;;1.80;;
56457;SDS011;42360;42.918;12.366;2022-09-01T16:51:30;4.32;;;2.20;;
56457;SDS011;42360;42.918;12.366;2022-09-01T16:59:22;3.08;;;2.03;;
56457;SDS011;42360;42.918;12.366;2022-09-01T17:05:21;3.78;;;1.90;;
56457;SDS011;42360;42.918;12.366;2022-09-01T17:07:30;2.78;;;2.35;;
56457;SDS011;42360;42.918;12.366;2022-09-01T17:10:11;2.85;;;1.90;;
56457;SDS011;42360;42.918;12.366;2022-09-01T17:12:47;2.58;;;1.70;;
56457;SDS011;42360;42.918;12.366;2022-09-01T17:18:08;2.80;;;1.90;;
56457;SDS011;42360;42.918;12.366;2022-09-01T17:20:42;2.75;;;2.17;;
56457;SDS011;42360;42.918;12.366;2022-09-01T17:23:15;4.35;;;1.90;;
56457;SDS011;42360;42.918;12.366;2022-09-01T17:25:53;3.22;;;1.70;;
56457;SDS011;42360;42.918;12.366;2022-09-01T17:28:28;3.78;;;1.70;;
56457;SDS011;42360;42.918;12.366;2022-09-01T17:31:04;2.38;;;1.58;;
56457;SDS011;42360;42.918;12.366;2022-09-01T17:33:51;2.90;;;1.75;;
56457;SDS011;42360;42.918;12.366;2022-09-01T17:42:02;2.00;;;1.65;;
56457;SDS011;42360;42.918;12.366;2022-09-01T17:44:39;2.30;;;1.75;;
56457;SDS011;42360;42.918;12.366;2022-09-01T17:50:03;4.38;;;1.98;;
56457;SDS011;42360;42.918;12.366;2022-09-01T18:05:23;2.53;;;1.45;;
56457;SDS011;42360;42.918;12.366;2022-09-01T18:10:28;5.50;;;1.42;;
56457;SDS011;42360;42.918;12.366;2022-09-01T18:13:00;1.65;;;1.30;;
56457;SDS011;42360;42.918;12.366;2022-09-01T18:15:27;2.63;;;1.63;;
56457;SDS011;42360;42.918;12.366;2022-09-01T18:18:09;1.80;;;1.40;;
56457;SDS011;42360;42.918;12.366;2022-09-01T18:20:45;2.80;;;1.60;;
56457;SDS011;42360;42.918;12.366;2022-09-01T18:23:13;2.63;;;1.60;;
56457;SDS011;42360;42.918;12.366;2022-09-01T18:25:43;4.75;;;3.05;;
56457;SDS011;42360;42.918;12.366;2022-09-01T18:28:13;1.95;;;1.67;;
56457;SDS011;42360;42.918;12.366;2022-09-01T18:33:44;2.60;;;1.73;;
56457;SDS011;42360;42.918;12.366;2022-09-01T18:39:14;2.00;;;1.75;;
56457;SDS011;42360;42.918;12.366;2022-09-01T18:41:50;3.00;;;2.10;;
56457;SDS011;42360;42.918;12.366;2022-09-01T18:46:53;2.42;;;1.90;;
56457;SDS011;42360;42.918;12.366;2022-09-01T18:49:38;4.03;;;2.20;;
56457;SDS011;42360;42.918;12.366;2022-09-01T18:52:13;2.88;;;2.08;;
56457;SDS011;42360;42.918;12.366;2022-09-01T18:57:54;2.90;;;1.88;;
56457;SDS011;42360;42.918;12.366;2022-09-01T19:01:00;2.83;;;2.30;;
56457;SDS011;42360;42.918;12.366;2022-09-01T19:08:41;5.53;;;2.45;;
56457;SDS011;42360;42.918;12.366;2022-09-01T19:11:16;2.80;;;2.08;;
56457;SDS011;42360;42.918;12.366;2022-09-01T19:22:33;2.80;;;1.80;;
56457;SDS011;42360;42.918;12.366;2022-09-01T19:25:00;1.92;;;1.67;;
56457;SDS011;42360;42.918;12.366;2022-09-01T19:28:38;2.10;;;1.83;;
56457;SDS011;42360;42.918;12.366;2022-09-01T19:33:51;2.67;;;1.95;;
56457;SDS011;42360;42.918;12.366;2022-09-01T19:36:37;2.30;;;1.83;;
56457;SDS011;42360;42.918;12.366;2022-09-01T19:39:07;2.75;;;2.00;;
56457;SDS011;42360;42.918;12.366;2022-09-01T19:41:39;2.35;;;2.15;;
56457;SDS011;42360;42.918;12.366;2022-09-01T19:44:53;2.20;;;1.90;;
56457;SDS011;42360;42.918;12.366;2022-09-01T19:47:36;4.55;;;2.28;;
56457;SDS011;42360;42.918;12.366;2022-09-01T19:50:03;2.45;;;1.90;;
56457;SDS011;42360;42.918;12.366;2022-09-01T19:53:13;2.75;;;2.55;;
56457;SDS011;42360;42.918;12.366;2022-09-01T19:58:16;3.70;;;2.10;;
56457;SDS011;42360;42.918;12.366;2022-09-01T20:03:25;1.70;;;1.58;;
56457;SDS011;42360;42.918;12.366;2022-09-01T20:06:12;1.95;;;1.85;;
56457;SDS011;42360;42.918;12.366;2022-09-01T20:11:30;4.32;;;2.50;;
56457;SDS011;42360;42.918;12.366;2022-09-01T20:16:45;2.10;;;1.90;;
56457;SDS011;42360;42.918;12.366;2022-09-01T20:24:46;5.22;;;2.13;;
56457;SDS011;42360;42.918;12.366;2022-09-01T20:30:12;3.80;;;2.15;;
56457;SDS011;42360;42.918;12.366;2022-09-01T20:32:48;2.30;;;2.10;;
56457;SDS011;42360;42.918;12.366;2022-09-01T20:35:19;3.58;;;2.20;;